sensor_id;sensor_type;location;lat;lon;timestamp;P1;durP1;ratioP1;P2;durP2;ratioP2
11839;SDS011;5979;50.800;4.904;2023-01-28T00:01:04;4.37;;;4.00;;
11839;SDS011;5979;50.800;4.904;2023-01-28T00:03:35;4.47;;;4.17;;
11839;SDS011;5979;50.800;4.904;2023-01-28T00:06:06;4.20;;;3.90;;
11839;SDS011;5979;50.800;4.904;2023-01-28T00:08:33;4.03;;;3.73;;
11839;SDS011;5979;50.800;4.904;2023-01-28T00:10:59;4.93;;;4.43;;
11839;SDS011;5979;50.800;4.904;2023-01-28T00:13:26;4.30;;;3.87;;
11839;SDS011;5979;50.800;4.904;2023-01-28T00:15:57;4.03;;;3.63;;
11839;SDS011;5979;50.800;4.904;2023-01-28T00:18:24;4.20;;;3.90;;
11839;SDS011;5979;50.800;4.904;2023-01-28T00:20:59;4.43;;;4.13;;
11839;SDS011;5979;50.800;4.904;2023-01-28T00:23:28;4.70;;;4.30;;
11839;SDS011;5979;50.800;4.904;2023-01-28T00:25:58;4.60;;;4.20;;
11839;SDS011;5979;50.800;4.904;2023-01-28T00:28:29;5.07;;;4.67;;
11839;SDS011;5979;50.800;4.904;2023-01-28T00:30:55;4.23;;;3.93;;
11839;SDS011;5979;50.800;4.904;2023-01-28T00:33:21;4.57;;;4.17;;
11839;SDS011;5979;50.800;4.904;2023-01-28T00:35:47;4.33;;;4.03;;
11839;SDS011;5979;50.800;4.904;2023-01-28T00:38:20;5.03;;;4.63;;
11839;SDS011;5979;50.800;4.904;2023-01-28T00:40:46;5.43;;;4.93;;
11839;SDS011;5979;50.800;4.904;2023-01-28T00:43:12;6.50;;;5.80;;
11839;SDS011;5979;50.800;4.904;2023-01-28T00:45:38;6.53;;;5.60;;
11839;SDS011;5979;50.800;4.904;2023-01-28T00:48:03;6.70;;;6.00;;
11839;SDS011;5979;50.800;4.904;2023-01-28T00:50:30;6.50;;;5.90;;
11839;SDS011;5979;50.800;4.904;2023-01-28T00:52:55;6.40;;;5.87;;
11839;SDS011;5979;50.800;4.904;2023-01-28T00:55:21;6.90;;;6.17;;
11839;SDS011;5979;50.800;4.904;2023-01-28T00:57:47;6.90;;;6.20;;
11839;SDS011;5979;50.800;4.904;2023-01-28T01:00:13;6.80;;;6.00;;
11839;SDS011;5979;50.800;4.904;2023-01-28T01:02:39;7.33;;;6.27;;
11839;SDS011;5979;50.800;4.904;2023-01-28T01:05:04;6.83;;;6.17;;
11839;SDS011;5979;50.800;4.904;2023-01-28T01:07:31;7.23;;;6.53;;
11839;SDS011;5979;50.800;4.904;2023-01-28T01:09:59;7.77;;;6.90;;
11839;SDS011;5979;50.800;4.904;2023-01-28T01:12:28;8.17;;;6.43;;
11839;SDS011;5979;50.800;4.904;2023-01-28T01:14:55;8.23;;;7.43;;
11839;SDS011;5979;50.800;4.904;2023-01-28T01:17:21;7.37;;;6.67;;
11839;SDS011;5979;50.800;4.904;2023-01-28T01:19:47;7.00;;;6.30;;
11839;SDS011;5979;50.800;4.904;2023-01-28T01:22:12;7.05;;;6.10;;
11839;SDS011;5979;50.800;4.904;2023-01-28T01:24:38;7.37;;;6.67;;
11839;SDS011;5979;50.800;4.904;2023-01-28T01:27:04;7.73;;;6.93;;
11839;SDS011;5979;50.800;4.904;2023-01-28T01:29:32;7.37;;;6.27;;
11839;SDS011;5979;50.800;4.904;2023-01-28T01:31:58;8.07;;;6.67;;
11839;SDS011;5979;50.800;4.904;2023-01-28T01:34:24;7.37;;;6.67;;
11839;SDS011;5979;50.800;4.904;2023-01-28T01:36:50;7.57;;;6.77;;
11839;SDS011;5979;50.800;4.904;2023-01-28T01:39:16;8.43;;;7.57;;
11839;SDS011;5979;50.800;4.904;2023-01-28T01:41:42;8.20;;;7.10;;
11839;SDS011;5979;50.800;4.904;2023-01-28T01:47:11;7.83;;;6.70;;
11839;SDS011;5979;50.800;4.904;2023-01-28T01:49:37;8.27;;;7.30;;
11839;SDS011;5979;50.800;4.904;2023-01-28T01:52:14;9.37;;;7.47;;
11839;SDS011;5979;50.800;4.904;2023-01-28T01:54:46;9.43;;;7.97;;
11839;SDS011;5979;50.800;4.904;2023-01-28T01:57:19;10.30;;;7.27;;
11839;SDS011;5979;50.800;4.904;2023-01-28T01:59:53;10.00;;;8.00;;
11839;SDS011;5979;50.800;4.904;2023-01-28T02:02:20;10.57;;;8.10;;
11839;SDS011;5979;50.800;4.904;2023-01-28T02:04:47;9.00;;;7.63;;
11839;SDS011;5979;50.800;4.904;2023-01-28T02:07:13;11.77;;;8.10;;
11839;SDS011;5979;50.800;4.904;2023-01-28T02:09:42;9.33;;;7.73;;
11839;SDS011;5979;50.800;4.904;2023-01-28T02:12:19;10.53;;;8.40;;
11839;SDS011;5979;50.800;4.904;2023-01-28T02:14:58;8.80;;;7.83;;
11839;SDS011;5979;50.800;4.904;2023-01-28T02:17:31;10.13;;;8.03;;
11839;SDS011;5979;50.800;4.904;2023-01-28T02:19:58;10.87;;;8.40;;
11839;SDS011;5979;50.800;4.904;2023-01-28T02:33:29;11.53;;;8.50;;
11839;SDS011;5979;50.800;4.904;2023-01-28T02:38:57;10.93;;;8.33;;
11839;SDS011;5979;50.800;4.904;2023-01-28T02:41:35;12.87;;;8.70;;
11839;SDS011;5979;50.800;4.904;2023-01-28T02:44:29;12.33;;;9.13;;
11839;SDS011;5979;50.800;4.904;2023-01-28T02:46:55;11.07;;;8.43;;
11839;SDS011;5979;50.800;4.904;2023-01-28T03:00:49;14.07;;;9.80;;
11839;SDS011;5979;50.800;4.904;2023-01-28T03:06:06;11.80;;;8.40;;
11839;SDS011;5979;50.800;4.904;2023-01-28T03:08:45;12.13;;;9.47;;
11839;SDS011;5979;50.800;4.904;2023-01-28T03:11:34;15.30;;;9.43;;
11839;SDS011;5979;50.800;4.904;2023-01-28T03:14:22;11.20;;;8.87;;
11839;SDS011;5979;50.800;4.904;2023-01-28T03:17:08;12.20;;;9.10;;
11839;SDS011;5979;50.800;4.904;2023-01-28T03:19:59;10.87;;;8.33;;
11839;SDS011;5979;50.800;4.904;2023-01-28T03:22:44;12.03;;;8.63;;
11839;SDS011;5979;50.800;4.904;2023-01-28T03:25:30;12.67;;;9.30;;
11839;SDS011;5979;50.800;4.904;2023-01-28T03:28:16;12.23;;;9.00;;
11839;SDS011;5979;50.800;4.904;2023-01-28T03:33:52;12.73;;;8.70;;
11839;SDS011;5979;50.800;4.904;2023-01-28T03:36:37;12.27;;;9.40;;
11839;SDS011;5979;50.800;4.904;2023-01-28T03:39:23;11.60;;;8.53;;
11839;SDS011;5979;50.800;4.904;2023-01-28T03:41:55;12.27;;;9.13;;
11839;SDS011;5979;50.800;4.904;2023-01-28T03:44:27;13.43;;;9.30;;
11839;SDS011;5979;50.800;4.904;2023-01-28T03:47:11;13.80;;;10.00;;
11839;SDS011;5979;50.800;4.904;2023-01-28T03:49:38;12.57;;;8.73;;
11839;SDS011;5979;50.800;4.904;2023-01-28T03:52:13;12.23;;;9.10;;
11839;SDS011;5979;50.800;4.904;2023-01-28T03:54:40;12.77;;;8.80;;
11839;SDS011;5979;50.800;4.904;2023-01-28T03:57:06;12.30;;;8.63;;
11839;SDS011;5979;50.800;4.904;2023-01-28T03:59:32;12.63;;;9.13;;
11839;SDS011;5979;50.800;4.904;2023-01-28T04:01:58;12.23;;;8.57;;
11839;SDS011;5979;50.800;4.904;2023-01-28T04:04:24;14.40;;;9.80;;
11839;SDS011;5979;50.800;4.904;2023-01-28T04:06:50;13.33;;;9.33;;
11839;SDS011;5979;50.800;4.904;2023-01-28T04:09:17;14.40;;;10.13;;
11839;SDS011;5979;50.800;4.904;2023-01-28T04:11:43;16.83;;;10.13;;
11839;SDS011;5979;50.800;4.904;2023-01-28T04:14:09;12.77;;;8.73;;
11839;SDS011;5979;50.800;4.904;2023-01-28T04:16:34;14.43;;;9.40;;
11839;SDS011;5979;50.800;4.904;2023-01-28T04:19:00;12.80;;;8.40;;
11839;SDS011;5979;50.800;4.904;2023-01-28T04:21:26;11.97;;;9.03;;
11839;SDS011;5979;50.800;4.904;2023-01-28T04:23:51;12.93;;;8.97;;
11839;SDS011;5979;50.800;4.904;2023-01-28T04:26:17;13.10;;;8.63;;
11839;SDS011;5979;50.800;4.904;2023-01-28T04:28:43;13.90;;;9.37;;
11839;SDS011;5979;50.800;4.904;2023-01-28T04:31:08;12.83;;;8.70;;
11839;SDS011;5979;50.800;4.904;2023-01-28T04:33:34;14.30;;;9.20;;
11839;SDS011;5979;50.800;4.904;2023-01-28T04:36:00;12.77;;;9.47;;
11839;SDS011;5979;50.800;4.904;2023-01-28T04:38:25;14.27;;;8.93;;
11839;SDS011;5979;50.800;4.904;2023-01-28T04:40:51;13.77;;;8.57;;
11839;SDS011;5979;50.800;4.904;2023-01-28T04:43:18;11.63;;;8.60;;
11839;SDS011;5979;50.800;4.904;2023-01-28T04:45:47;12.57;;;8.47;;
11839;SDS011;5979;50.800;4.904;2023-01-28T04:48:14;13.17;;;9.10;;
11839;SDS011;5979;50.800;4.904;2023-01-28T04:50:41;12.60;;;8.80;;
11839;SDS011;5979;50.800;4.904;2023-01-28T04:53:07;13.80;;;9.27;;
11839;SDS011;5979;50.800;4.904;2023-01-28T04:55:34;12.20;;;8.87;;
11839;SDS011;5979;50.800;4.904;2023-01-28T04:57:59;13.97;;;9.60;;
11839;SDS011;5979;50.800;4.904;2023-01-28T05:00:25;13.70;;;9.50;;
11839;SDS011;5979;50.800;4.904;2023-01-28T05:02:51;14.93;;;9.63;;
11839;SDS011;5979;50.800;4.904;2023-01-28T05:05:17;14.93;;;10.53;;
11839;SDS011;5979;50.800;4.904;2023-01-28T05:07:42;16.73;;;12.17;;
11839;SDS011;5979;50.800;4.904;2023-01-28T05:10:09;16.40;;;11.33;;
11839;SDS011;5979;50.800;4.904;2023-01-28T05:12:35;16.03;;;11.30;;
11839;SDS011;5979;50.800;4.904;2023-01-28T05:15:00;16.73;;;11.40;;
11839;SDS011;5979;50.800;4.904;2023-01-28T05:17:27;16.97;;;11.20;;
11839;SDS011;5979;50.800;4.904;2023-01-28T05:19:53;14.87;;;10.67;;
11839;SDS011;5979;50.800;4.904;2023-01-28T05:22:19;16.23;;;10.67;;
11839;SDS011;5979;50.800;4.904;2023-01-28T05:24:44;18.60;;;11.70;;
11839;SDS011;5979;50.800;4.904;2023-01-28T05:27:10;13.57;;;9.20;;
11839;SDS011;5979;50.800;4.904;2023-01-28T05:29:36;17.07;;;10.60;;
11839;SDS011;5979;50.800;4.904;2023-01-28T05:32:01;13.73;;;10.20;;
11839;SDS011;5979;50.800;4.904;2023-01-28T05:34:27;16.37;;;10.47;;
11839;SDS011;5979;50.800;4.904;2023-01-28T05:36:53;11.93;;;8.73;;
11839;SDS011;5979;50.800;4.904;2023-01-28T05:39:19;15.20;;;9.63;;
11839;SDS011;5979;50.800;4.904;2023-01-28T05:41:44;16.33;;;11.17;;
11839;SDS011;5979;50.800;4.904;2023-01-28T05:44:10;12.73;;;9.50;;
11839;SDS011;5979;50.800;4.904;2023-01-28T05:46:35;13.00;;;9.13;;
11839;SDS011;5979;50.800;4.904;2023-01-28T05:49:01;12.37;;;9.13;;
11839;SDS011;5979;50.800;4.904;2023-01-28T05:51:27;14.40;;;9.70;;
11839;SDS011;5979;50.800;4.904;2023-01-28T05:53:53;14.23;;;9.70;;
11839;SDS011;5979;50.800;4.904;2023-01-28T05:56:18;16.00;;;10.77;;
11839;SDS011;5979;50.800;4.904;2023-01-28T05:58:44;15.77;;;10.50;;
11839;SDS011;5979;50.800;4.904;2023-01-28T06:01:10;16.00;;;10.77;;
11839;SDS011;5979;50.800;4.904;2023-01-28T06:03:35;17.60;;;11.40;;
11839;SDS011;5979;50.800;4.904;2023-01-28T06:06:01;18.33;;;11.97;;
11839;SDS011;5979;50.800;4.904;2023-01-28T06:08:27;20.47;;;12.47;;
11839;SDS011;5979;50.800;4.904;2023-01-28T06:10:52;21.03;;;12.80;;
11839;SDS011;5979;50.800;4.904;2023-01-28T06:13:18;17.33;;;11.57;;
11839;SDS011;5979;50.800;4.904;2023-01-28T06:15:44;18.37;;;12.63;;
11839;SDS011;5979;50.800;4.904;2023-01-28T06:18:12;19.97;;;12.70;;
11839;SDS011;5979;50.800;4.904;2023-01-28T06:20:37;19.20;;;12.43;;
11839;SDS011;5979;50.800;4.904;2023-01-28T06:23:03;18.53;;;12.13;;
11839;SDS011;5979;50.800;4.904;2023-01-28T06:25:29;15.80;;;10.83;;
11839;SDS011;5979;50.800;4.904;2023-01-28T06:27:55;17.33;;;11.60;;
11839;SDS011;5979;50.800;4.904;2023-01-28T06:30:20;16.37;;;11.33;;
11839;SDS011;5979;50.800;4.904;2023-01-28T06:32:46;17.73;;;11.67;;
11839;SDS011;5979;50.800;4.904;2023-01-28T06:35:12;18.30;;;11.07;;
11839;SDS011;5979;50.800;4.904;2023-01-28T06:37:37;17.93;;;12.07;;
11839;SDS011;5979;50.800;4.904;2023-01-28T06:40:03;16.43;;;10.87;;
11839;SDS011;5979;50.800;4.904;2023-01-28T06:42:29;19.60;;;12.03;;
11839;SDS011;5979;50.800;4.904;2023-01-28T06:44:55;17.60;;;11.27;;
11839;SDS011;5979;50.800;4.904;2023-01-28T06:47:21;15.47;;;11.27;;
11839;SDS011;5979;50.800;4.904;2023-01-28T06:49:46;22.37;;;12.60;;
11839;SDS011;5979;50.800;4.904;2023-01-28T06:52:12;19.27;;;12.67;;
11839;SDS011;5979;50.800;4.904;2023-01-28T06:54:38;20.07;;;13.93;;
11839;SDS011;5979;50.800;4.904;2023-01-28T06:57:03;19.53;;;12.83;;
11839;SDS011;5979;50.800;4.904;2023-01-28T06:59:29;20.27;;;12.37;;
11839;SDS011;5979;50.800;4.904;2023-01-28T07:01:55;19.97;;;12.60;;
11839;SDS011;5979;50.800;4.904;2023-01-28T07:04:20;17.17;;;11.43;;
11839;SDS011;5979;50.800;4.904;2023-01-28T07:06:46;20.00;;;13.03;;
11839;SDS011;5979;50.800;4.904;2023-01-28T07:09:12;18.93;;;12.30;;
11839;SDS011;5979;50.800;4.904;2023-01-28T07:11:37;17.70;;;12.00;;
11839;SDS011;5979;50.800;4.904;2023-01-28T07:14:03;19.83;;;12.57;;
11839;SDS011;5979;50.800;4.904;2023-01-28T07:16:29;17.40;;;11.23;;
11839;SDS011;5979;50.800;4.904;2023-01-28T07:18:55;18.07;;;12.07;;
11839;SDS011;5979;50.800;4.904;2023-01-28T07:21:20;18.67;;;12.53;;
11839;SDS011;5979;50.800;4.904;2023-01-28T07:23:46;20.47;;;12.30;;
11839;SDS011;5979;50.800;4.904;2023-01-28T07:26:12;19.20;;;12.43;;
11839;SDS011;5979;50.800;4.904;2023-01-28T07:28:38;19.10;;;12.67;;
11839;SDS011;5979;50.800;4.904;2023-01-28T07:31:03;23.07;;;14.43;;
11839;SDS011;5979;50.800;4.904;2023-01-28T07:33:29;24.87;;;15.33;;
11839;SDS011;5979;50.800;4.904;2023-01-28T07:35:55;25.50;;;15.97;;
11839;SDS011;5979;50.800;4.904;2023-01-28T07:38:20;24.10;;;15.93;;
11839;SDS011;5979;50.800;4.904;2023-01-28T07:40:46;25.97;;;15.90;;
11839;SDS011;5979;50.800;4.904;2023-01-28T07:43:12;27.17;;;15.73;;
11839;SDS011;5979;50.800;4.904;2023-01-28T07:45:38;23.53;;;14.97;;
11839;SDS011;5979;50.800;4.904;2023-01-28T07:48:04;24.10;;;15.53;;
11839;SDS011;5979;50.800;4.904;2023-01-28T07:50:32;26.03;;;15.83;;
11839;SDS011;5979;50.800;4.904;2023-01-28T07:53:01;26.33;;;16.83;;
11839;SDS011;5979;50.800;4.904;2023-01-28T07:55:28;24.13;;;15.20;;
11839;SDS011;5979;50.800;4.904;2023-01-28T07:57:55;26.53;;;16.07;;
11839;SDS011;5979;50.800;4.904;2023-01-28T08:00:22;25.90;;;15.33;;
11839;SDS011;5979;50.800;4.904;2023-01-28T08:02:49;26.20;;;15.53;;
11839;SDS011;5979;50.800;4.904;2023-01-28T08:05:19;24.63;;;15.40;;
11839;SDS011;5979;50.800;4.904;2023-01-28T08:07:46;24.60;;;15.53;;
11839;SDS011;5979;50.800;4.904;2023-01-28T08:10:13;25.60;;;15.73;;
11839;SDS011;5979;50.800;4.904;2023-01-28T08:12:54;27.97;;;16.93;;
11839;SDS011;5979;50.800;4.904;2023-01-28T08:15:22;26.67;;;16.60;;
11839;SDS011;5979;50.800;4.904;2023-01-28T08:17:49;27.53;;;16.17;;
11839;SDS011;5979;50.800;4.904;2023-01-28T08:20:17;27.13;;;15.93;;
11839;SDS011;5979;50.800;4.904;2023-01-28T08:22:43;24.97;;;16.07;;
11839;SDS011;5979;50.800;4.904;2023-01-28T08:25:09;28.20;;;16.90;;
11839;SDS011;5979;50.800;4.904;2023-01-28T08:27:34;28.37;;;16.50;;
11839;SDS011;5979;50.800;4.904;2023-01-28T08:30:00;24.17;;;15.40;;
11839;SDS011;5979;50.800;4.904;2023-01-28T08:32:27;25.17;;;15.33;;
11839;SDS011;5979;50.800;4.904;2023-01-28T08:34:54;25.73;;;16.00;;
11839;SDS011;5979;50.800;4.904;2023-01-28T08:37:19;25.43;;;16.10;;
11839;SDS011;5979;50.800;4.904;2023-01-28T08:39:45;24.50;;;15.33;;
11839;SDS011;5979;50.800;4.904;2023-01-28T08:42:11;23.53;;;14.77;;
11839;SDS011;5979;50.800;4.904;2023-01-28T08:44:36;25.37;;;15.10;;
11839;SDS011;5979;50.800;4.904;2023-01-28T08:47:02;27.23;;;16.93;;
11839;SDS011;5979;50.800;4.904;2023-01-28T08:49:28;27.70;;;15.50;;
11839;SDS011;5979;50.800;4.904;2023-01-28T08:51:53;24.30;;;14.83;;
11839;SDS011;5979;50.800;4.904;2023-01-28T08:54:19;30.07;;;16.63;;
11839;SDS011;5979;50.800;4.904;2023-01-28T08:56:45;24.53;;;15.53;;
11839;SDS011;5979;50.800;4.904;2023-01-28T08:59:12;25.57;;;16.03;;
11839;SDS011;5979;50.800;4.904;2023-01-28T09:01:39;24.60;;;15.97;;
11839;SDS011;5979;50.800;4.904;2023-01-28T09:04:05;26.37;;;15.90;;
11839;SDS011;5979;50.800;4.904;2023-01-28T09:06:30;24.37;;;15.17;;
11839;SDS011;5979;50.800;4.904;2023-01-28T09:08:57;25.30;;;15.97;;
11839;SDS011;5979;50.800;4.904;2023-01-28T09:11:26;25.40;;;15.70;;
11839;SDS011;5979;50.800;4.904;2023-01-28T09:13:53;24.87;;;16.20;;
11839;SDS011;5979;50.800;4.904;2023-01-28T09:16:20;24.50;;;15.50;;
11839;SDS011;5979;50.800;4.904;2023-01-28T09:18:46;22.93;;;15.40;;
11839;SDS011;5979;50.800;4.904;2023-01-28T09:21:12;21.03;;;13.73;;
11839;SDS011;5979;50.800;4.904;2023-01-28T09:23:38;22.60;;;13.93;;
11839;SDS011;5979;50.800;4.904;2023-01-28T09:26:05;21.47;;;13.10;;
11839;SDS011;5979;50.800;4.904;2023-01-28T09:28:31;21.77;;;12.10;;
11839;SDS011;5979;50.800;4.904;2023-01-28T09:31:04;16.03;;;11.23;;
11839;SDS011;5979;50.800;4.904;2023-01-28T09:33:32;15.50;;;10.73;;
11839;SDS011;5979;50.800;4.904;2023-01-28T09:35:59;12.53;;;9.33;;
11839;SDS011;5979;50.800;4.904;2023-01-28T09:38:26;13.33;;;9.67;;
11839;SDS011;5979;50.800;4.904;2023-01-28T09:40:53;13.30;;;9.90;;
11839;SDS011;5979;50.800;4.904;2023-01-28T09:46:13;12.53;;;9.63;;
11839;SDS011;5979;50.800;4.904;2023-01-28T09:48:43;14.33;;;10.30;;
11839;SDS011;5979;50.800;4.904;2023-01-28T09:51:31;15.03;;;11.07;;
11839;SDS011;5979;50.800;4.904;2023-01-28T09:56:51;11.27;;;9.17;;
11839;SDS011;5979;50.800;4.904;2023-01-28T09:59:33;11.90;;;9.07;;
11839;SDS011;5979;50.800;4.904;2023-01-28T10:02:17;12.37;;;9.57;;
11839;SDS011;5979;50.800;4.904;2023-01-28T10:14:01;17.13;;;12.17;;
11839;SDS011;5979;50.800;4.904;2023-01-28T10:16:36;17.80;;;11.50;;
11839;SDS011;5979;50.800;4.904;2023-01-28T10:19:52;18.30;;;12.53;;
11839;SDS011;5979;50.800;4.904;2023-01-28T10:22:04;13.87;;;9.47;;
11839;SDS011;5979;50.800;4.904;2023-01-28T10:24:34;12.37;;;8.83;;
11839;SDS011;5979;50.800;4.904;2023-01-28T10:27:11;11.73;;;9.20;;
11839;SDS011;5979;50.800;4.904;2023-01-28T10:29:41;12.03;;;8.80;;
11839;SDS011;5979;50.800;4.904;2023-01-28T10:32:20;11.13;;;8.77;;
11839;SDS011;5979;50.800;4.904;2023-01-28T10:34:52;13.20;;;10.30;;
11839;SDS011;5979;50.800;4.904;2023-01-28T10:37:18;17.50;;;12.40;;
11839;SDS011;5979;50.800;4.904;2023-01-28T10:39:45;20.30;;;13.40;;
11839;SDS011;5979;50.800;4.904;2023-01-28T10:42:21;20.13;;;14.07;;
11839;SDS011;5979;50.800;4.904;2023-01-28T10:44:49;17.87;;;13.43;;
11839;SDS011;5979;50.800;4.904;2023-01-28T10:47:19;14.87;;;10.67;;
11839;SDS011;5979;50.800;4.904;2023-01-28T10:49:57;18.77;;;13.40;;
11839;SDS011;5979;50.800;4.904;2023-01-28T10:52:24;16.93;;;11.67;;
11839;SDS011;5979;50.800;4.904;2023-01-28T10:55:05;18.17;;;12.77;;
11839;SDS011;5979;50.800;4.904;2023-01-28T10:57:34;16.07;;;11.00;;
11839;SDS011;5979;50.800;4.904;2023-01-28T11:02:46;18.33;;;12.83;;
11839;SDS011;5979;50.800;4.904;2023-01-28T11:05:21;22.40;;;15.50;;
11839;SDS011;5979;50.800;4.904;2023-01-28T11:08:01;23.37;;;15.97;;
11839;SDS011;5979;50.800;4.904;2023-01-28T11:10:40;16.67;;;11.57;;
11839;SDS011;5979;50.800;4.904;2023-01-28T11:13:20;17.47;;;11.80;;
11839;SDS011;5979;50.800;4.904;2023-01-28T11:15:52;19.90;;;12.47;;
11839;SDS011;5979;50.800;4.904;2023-01-28T11:18:34;17.00;;;12.07;;
11839;SDS011;5979;50.800;4.904;2023-01-28T11:21:04;18.40;;;12.50;;
11839;SDS011;5979;50.800;4.904;2023-01-28T11:23:32;20.33;;;13.03;;
11839;SDS011;5979;50.800;4.904;2023-01-28T11:26:06;18.47;;;12.80;;
11839;SDS011;5979;50.800;4.904;2023-01-28T11:28:39;19.67;;;13.27;;
11839;SDS011;5979;50.800;4.904;2023-01-28T11:31:06;19.50;;;13.17;;
11839;SDS011;5979;50.800;4.904;2023-01-28T11:33:42;19.00;;;13.27;;
11839;SDS011;5979;50.800;4.904;2023-01-28T11:36:22;19.83;;;13.23;;
11839;SDS011;5979;50.800;4.904;2023-01-28T11:44:14;15.57;;;10.90;;
11839;SDS011;5979;50.800;4.904;2023-01-28T11:47:01;14.67;;;10.77;;
11839;SDS011;5979;50.800;4.904;2023-01-28T11:49:42;19.77;;;13.33;;
11839;SDS011;5979;50.800;4.904;2023-01-28T11:55:26;18.03;;;12.97;;
11839;SDS011;5979;50.800;4.904;2023-01-28T11:58:20;19.80;;;12.57;;
11839;SDS011;5979;50.800;4.904;2023-01-28T12:28:19;14.47;;;9.73;;
11839;SDS011;5979;50.800;4.904;2023-01-28T12:31:15;13.70;;;10.37;;
11839;SDS011;5979;50.800;4.904;2023-01-28T12:42:04;19.57;;;12.70;;
11839;SDS011;5979;50.800;4.904;2023-01-28T12:44:50;18.17;;;12.63;;
11839;SDS011;5979;50.800;4.904;2023-01-28T12:47:26;18.23;;;12.57;;
11839;SDS011;5979;50.800;4.904;2023-01-28T12:50:03;18.13;;;12.33;;
11839;SDS011;5979;50.800;4.904;2023-01-28T12:52:46;16.67;;;12.20;;
11839;SDS011;5979;50.800;4.904;2023-01-28T12:55:17;15.50;;;11.13;;
11839;SDS011;5979;50.800;4.904;2023-01-28T12:57:55;16.60;;;12.10;;
11839;SDS011;5979;50.800;4.904;2023-01-28T13:00:32;19.40;;;11.97;;
11839;SDS011;5979;50.800;4.904;2023-01-28T13:05:49;17.27;;;11.57;;
11839;SDS011;5979;50.800;4.904;2023-01-28T13:10:50;17.70;;;12.93;;
11839;SDS011;5979;50.800;4.904;2023-01-28T13:15:46;20.07;;;13.70;;
11839;SDS011;5979;50.800;4.904;2023-01-28T13:20:59;19.40;;;13.53;;
11839;SDS011;5979;50.800;4.904;2023-01-28T13:28:42;17.37;;;12.57;;
11839;SDS011;5979;50.800;4.904;2023-01-28T13:31:10;16.90;;;12.27;;
11839;SDS011;5979;50.800;4.904;2023-01-28T13:33:41;18.03;;;12.60;;
11839;SDS011;5979;50.800;4.904;2023-01-28T13:38:42;19.88;;;13.38;;
11839;SDS011;5979;50.800;4.904;2023-01-28T13:41:09;18.35;;;12.93;;
11839;SDS011;5979;50.800;4.904;2023-01-28T13:43:39;19.20;;;12.47;;
11839;SDS011;5979;50.800;4.904;2023-01-28T13:46:07;20.73;;;12.25;;
11839;SDS011;5979;50.800;4.904;2023-01-28T13:49:09;22.98;;;14.05;;
11839;SDS011;5979;50.800;4.904;2023-01-28T13:51:34;19.17;;;11.60;;
11839;SDS011;5979;50.800;4.904;2023-01-28T13:54:04;22.20;;;13.33;;
11839;SDS011;5979;50.800;4.904;2023-01-28T13:56:54;17.10;;;12.38;;
11839;SDS011;5979;50.800;4.904;2023-01-28T14:05:34;16.93;;;12.23;;
11839;SDS011;5979;50.800;4.904;2023-01-28T14:16:59;15.10;;;11.17;;
11839;SDS011;5979;50.800;4.904;2023-01-28T14:19:36;15.90;;;11.20;;
11839;SDS011;5979;50.800;4.904;2023-01-28T14:22:08;18.00;;;11.13;;
11839;SDS011;5979;50.800;4.904;2023-01-28T14:24:40;16.23;;;11.10;;
11839;SDS011;5979;50.800;4.904;2023-01-28T14:27:26;15.75;;;11.30;;
11839;SDS011;5979;50.800;4.904;2023-01-28T14:33:10;16.90;;;11.60;;
11839;SDS011;5979;50.800;4.904;2023-01-28T14:35:37;18.90;;;10.87;;
11839;SDS011;5979;50.800;4.904;2023-01-28T14:38:11;15.83;;;10.77;;
11839;SDS011;5979;50.800;4.904;2023-01-28T14:40:41;14.77;;;10.97;;
11839;SDS011;5979;50.800;4.904;2023-01-28T14:43:08;14.47;;;11.47;;
11839;SDS011;5979;50.800;4.904;2023-01-28T14:59:36;13.57;;;9.83;;
11839;SDS011;5979;50.800;4.904;2023-01-28T15:01:45;14.10;;;10.23;;
11839;SDS011;5979;50.800;4.904;2023-01-28T15:06:51;15.23;;;10.23;;
11839;SDS011;5979;50.800;4.904;2023-01-28T15:09:17;12.77;;;9.80;;
11839;SDS011;5979;50.800;4.904;2023-01-28T15:11:43;16.70;;;10.90;;
11839;SDS011;5979;50.800;4.904;2023-01-28T15:14:12;13.30;;;9.37;;
11839;SDS011;5979;50.800;4.904;2023-01-28T15:16:48;12.67;;;9.20;;
11839;SDS011;5979;50.800;4.904;2023-01-28T15:19:14;11.70;;;9.13;;
11839;SDS011;5979;50.800;4.904;2023-01-28T15:21:42;13.13;;;9.73;;
11839;SDS011;5979;50.800;4.904;2023-01-28T15:24:10;14.80;;;9.90;;
11839;SDS011;5979;50.800;4.904;2023-01-28T15:26:38;11.63;;;9.13;;
11839;SDS011;5979;50.800;4.904;2023-01-28T15:29:04;14.90;;;9.90;;
11839;SDS011;5979;50.800;4.904;2023-01-28T15:31:31;12.97;;;9.30;;
11839;SDS011;5979;50.800;4.904;2023-01-28T15:34:12;13.83;;;9.90;;
11839;SDS011;5979;50.800;4.904;2023-01-28T15:36:39;11.73;;;9.23;;
11839;SDS011;5979;50.800;4.904;2023-01-28T15:39:12;14.70;;;10.20;;
11839;SDS011;5979;50.800;4.904;2023-01-28T15:41:39;15.80;;;10.80;;
11839;SDS011;5979;50.800;4.904;2023-01-28T15:44:15;14.33;;;9.90;;
11839;SDS011;5979;50.800;4.904;2023-01-28T15:47:00;14.47;;;10.27;;
11839;SDS011;5979;50.800;4.904;2023-01-28T15:49:34;13.60;;;10.33;;
11839;SDS011;5979;50.800;4.904;2023-01-28T15:52:02;14.37;;;10.00;;
11839;SDS011;5979;50.800;4.904;2023-01-28T15:54:28;12.80;;;9.60;;
11839;SDS011;5979;50.800;4.904;2023-01-28T15:56:55;13.07;;;9.87;;
11839;SDS011;5979;50.800;4.904;2023-01-28T15:59:25;10.63;;;8.33;;
11839;SDS011;5979;50.800;4.904;2023-01-28T16:05:01;13.63;;;9.77;;
11839;SDS011;5979;50.800;4.904;2023-01-28T16:07:29;11.57;;;9.70;;
11839;SDS011;5979;50.800;4.904;2023-01-28T16:09:57;12.63;;;9.20;;
11839;SDS011;5979;50.800;4.904;2023-01-28T16:12:26;15.73;;;10.20;;
11839;SDS011;5979;50.800;4.904;2023-01-28T16:14:56;15.23;;;10.07;;
11839;SDS011;5979;50.800;4.904;2023-01-28T16:17:34;15.20;;;9.93;;
11839;SDS011;5979;50.800;4.904;2023-01-28T16:20:07;12.40;;;9.33;;
11839;SDS011;5979;50.800;4.904;2023-01-28T16:22:42;13.13;;;9.43;;
11839;SDS011;5979;50.800;4.904;2023-01-28T16:28:11;12.87;;;9.37;;
11839;SDS011;5979;50.800;4.904;2023-01-28T16:30:43;14.67;;;9.27;;
11839;SDS011;5979;50.800;4.904;2023-01-28T16:33:19;14.07;;;9.87;;
11839;SDS011;5979;50.800;4.904;2023-01-28T16:35:46;12.17;;;8.77;;
11839;SDS011;5979;50.800;4.904;2023-01-28T16:38:12;12.43;;;8.50;;
11839;SDS011;5979;50.800;4.904;2023-01-28T16:40:41;14.13;;;9.27;;
11839;SDS011;5979;50.800;4.904;2023-01-28T16:43:11;13.43;;;9.13;;
11839;SDS011;5979;50.800;4.904;2023-01-28T16:45:38;11.50;;;9.23;;
11839;SDS011;5979;50.800;4.904;2023-01-28T16:48:05;13.80;;;9.93;;
11839;SDS011;5979;50.800;4.904;2023-01-28T16:50:31;12.53;;;9.20;;
11839;SDS011;5979;50.800;4.904;2023-01-28T16:52:58;17.77;;;9.27;;
11839;SDS011;5979;50.800;4.904;2023-01-28T16:55:24;13.43;;;8.83;;
11839;SDS011;5979;50.800;4.904;2023-01-28T16:57:51;12.23;;;8.80;;
11839;SDS011;5979;50.800;4.904;2023-01-28T17:00:20;12.23;;;9.77;;
11839;SDS011;5979;50.800;4.904;2023-01-28T17:02:48;13.90;;;9.33;;
11839;SDS011;5979;50.800;4.904;2023-01-28T17:05:14;12.80;;;9.60;;
11839;SDS011;5979;50.800;4.904;2023-01-28T17:07:40;14.33;;;8.97;;
11839;SDS011;5979;50.800;4.904;2023-01-28T17:10:07;13.27;;;9.67;;
11839;SDS011;5979;50.800;4.904;2023-01-28T17:12:33;13.53;;;10.43;;
11839;SDS011;5979;50.800;4.904;2023-01-28T17:14:59;15.23;;;11.07;;
11839;SDS011;5979;50.800;4.904;2023-01-28T17:17:25;14.13;;;10.40;;
11839;SDS011;5979;50.800;4.904;2023-01-28T17:19:50;16.87;;;11.47;;
11839;SDS011;5979;50.800;4.904;2023-01-28T17:22:16;16.93;;;10.23;;
11839;SDS011;5979;50.800;4.904;2023-01-28T17:24:42;13.93;;;9.70;;
11839;SDS011;5979;50.800;4.904;2023-01-28T17:27:07;14.00;;;9.90;;
11839;SDS011;5979;50.800;4.904;2023-01-28T17:29:33;16.53;;;11.07;;
11839;SDS011;5979;50.800;4.904;2023-01-28T17:31:59;19.57;;;11.83;;